createdAt,value
2022-09-04T00:01:54.133Z,97598.59
2022-09-04T00:04:30.529Z,97598.00
2022-09-04T00:06:59.982Z,97603.63
2022-09-04T00:09:47.063Z,97592.41
2022-09-04T00:12:15.119Z,97586.50
2022-09-04T00:14:50.959Z,97585.22
2022-09-04T00:17:26.627Z,97593.78
2022-09-04T00:20:01.088Z,97594.16
2022-09-04T00:22:45.630Z,97596.97
2022-09-04T00:25:21.519Z,97590.25
2022-09-04T00:27:51.102Z,97605.94
2022-09-04T00:30:20.449Z,97604.66
2022-09-04T00:32:56.154Z,97602.22
2022-09-04T00:35:25.013Z,97597.16
2022-09-04T00:37:57.661Z,97602.56
2022-09-04T00:40:32.722Z,97605.50
2022-09-04T00:43:18.041Z,97609.44
2022-09-04T00:45:47.447Z,97606.84
2022-09-04T00:48:21.562Z,97611.59
2022-09-04T00:51:06.915Z,97611.56
2022-09-04T00:53:33.370Z,97619.19
2022-09-04T00:55:59.871Z,97620.63
2022-09-04T00:58:43.974Z,97618.28
2022-09-04T01:01:14.352Z,97625.53
2022-09-04T01:04:07.446Z,97627.88
2022-09-04T01:06:40.186Z,97624.66
2022-09-04T01:09:16.054Z,97626.31
2022-09-04T01:11:45.626Z,97628.00
2022-09-04T01:14:18.315Z,97631.50
2022-09-04T01:16:44.874Z,97636.44
2022-09-04T01:19:29.777Z,97644.06
2022-09-04T01:22:15.181Z,97631.63
2022-09-04T01:24:57.025Z,97640.22
2022-09-04T01:27:29.712Z,97634.47
2022-09-04T01:30:05.925Z,97628.72
2022-09-04T01:32:42.230Z,97639.63
2022-09-04T01:35:11.761Z,97637.97
2022-09-04T01:37:57.057Z,97642.50
2022-09-04T01:40:34.118Z,97644.25
2022-09-04T01:43:06.039Z,97652.78
2022-09-04T01:45:43.059Z,97642.78
2022-09-04T01:48:13.953Z,97634.59
2022-09-04T01:50:42.842Z,97641.38
2022-09-04T01:53:09.265Z,97641.66
2022-09-04T01:55:41.810Z,97645.31
2022-09-04T01:58:08.277Z,97641.56
2022-09-04T02:00:40.994Z,97644.09
2022-09-04T02:03:22.149Z,97644.22
2022-09-04T02:05:55.012Z,97650.03
2022-09-04T02:08:29.852Z,97654.44
2022-09-04T02:10:56.486Z,97648.72
2022-09-04T02:13:45.786Z,97660.25
2022-09-04T02:16:20.071Z,97651.97
2022-09-04T02:18:46.625Z,97655.81
2022-09-04T02:21:25.158Z,97649.03
2022-09-04T02:24:04.880Z,97651.22
2022-09-04T02:26:42.791Z,97656.47
2022-09-04T02:29:23.197Z,97663.34
2022-09-04T02:31:54.845Z,97664.63
2022-09-04T02:34:24.138Z,97672.03
2022-09-04T02:36:59.778Z,97667.53
2022-09-04T02:39:36.188Z,97670.25
2022-09-04T02:42:05.711Z,97668.66
2022-09-04T02:44:45.090Z,97675.97
2022-09-04T02:47:22.775Z,97678.50
2022-09-04T02:49:55.656Z,97673.09
2022-09-04T02:52:33.502Z,97677.56
2022-09-04T02:55:12.394Z,97671.28
2022-09-04T02:57:39.549Z,97680.09
2022-09-04T03:00:21.656Z,97683.94
2022-09-04T03:03:00.783Z,97684.41
2022-09-04T03:05:27.286Z,97683.94
2022-09-04T03:07:53.730Z,97690.78
2022-09-04T03:10:24.729Z,97693.59
2022-09-04T03:13:10.078Z,97695.09
2022-09-04T03:15:36.539Z,97698.38
2022-09-04T03:18:06.173Z,97709.72
2022-09-04T03:20:36.948Z,97712.53
2022-09-04T03:23:09.574Z,97710.66
2022-09-04T03:25:36.134Z,97715.53
2022-09-04T03:28:02.675Z,97710.84
2022-09-04T03:30:32.163Z,97709.78
2022-09-04T03:33:15.289Z,97718.34
2022-09-04T03:35:41.766Z,97719.00
2022-09-04T03:38:08.233Z,97728.16
2022-09-04T03:40:39.194Z,97730.16
2022-09-04T03:43:27.458Z,97721.97
2022-09-04T03:45:57.121Z,97725.47
2022-09-04T03:48:32.708Z,97739.03
2022-09-04T03:51:10.895Z,97739.31
2022-09-04T03:53:41.544Z,97736.13
2022-09-04T03:56:08.081Z,97737.16
2022-09-04T03:58:44.978Z,97738.28
2022-09-04T04:01:30.829Z,97739.63
2022-09-04T04:04:13.651Z,97743.03
2022-09-04T04:06:43.170Z,97750.22
2022-09-04T04:09:27.673Z,97750.63
2022-09-04T04:12:13.400Z,97748.97
2022-09-04T04:14:59.390Z,97752.81
2022-09-04T04:17:38.334Z,97742.91
2022-09-04T04:20:29.837Z,97749.16
2022-09-04T04:23:02.290Z,97753.94
2022-09-04T04:25:34.816Z,97754.28
2022-09-04T04:28:24.461Z,97756.66
2022-09-04T04:30:52.704Z,97768.47
2022-09-04T04:33:26.142Z,97771.75
2022-09-04T04:36:13.129Z,97771.75
2022-09-04T04:38:39.630Z,97771.28
2022-09-04T04:41:21.094Z,97783.81
2022-09-04T04:43:56.846Z,97784.03
2022-09-04T04:46:34.696Z,97779.59
2022-09-04T04:49:19.866Z,97787.56
2022-09-04T04:51:53.665Z,97795.50
2022-09-04T04:54:35.357Z,97791.72
2022-09-04T04:57:18.859Z,97791.69
2022-09-04T04:59:55.814Z,97797.22
2022-09-04T05:02:36.017Z,97794.69
2022-09-04T05:05:17.006Z,97787.06
2022-09-04T05:07:52.458Z,97796.47
2022-09-04T05:10:19.006Z,97806.00
2022-09-04T05:12:54.333Z,97810.25
2022-09-04T05:15:29.225Z,97817.59
2022-09-04T05:17:55.712Z,97814.56
2022-09-04T05:20:40.923Z,97816.59
2022-09-04T05:23:32.972Z,97816.31
2022-09-04T05:26:18.925Z,97821.84
2022-09-04T05:28:59.521Z,97813.09
2022-09-04T05:31:46.427Z,97816.22
2022-09-04T05:34:34.002Z,97815.84
2022-09-04T05:37:10.515Z,97825.19
2022-09-04T05:39:46.181Z,97823.47
2022-09-04T05:42:31.706Z,97827.50
2022-09-04T05:45:04.350Z,97826.84
2022-09-04T05:47:54.997Z,97826.66
2022-09-04T05:50:21.695Z,97827.69
2022-09-04T05:52:48.370Z,97831.63
2022-09-04T05:55:31.940Z,97832.09
2022-09-04T05:58:01.257Z,97831.59
2022-09-04T06:00:31.256Z,97835.31
2022-09-04T06:03:00.578Z,97840.63
2022-09-04T06:05:46.006Z,97841.31
2022-09-04T06:08:31.950Z,97836.47
2022-09-04T06:11:17.395Z,97835.31
2022-09-04T06:13:56.095Z,97831.34
2022-09-04T06:16:48.678Z,97834.59
2022-09-04T06:19:18.195Z,97836.47
2022-09-04T06:22:08.637Z,97840.56
2022-09-04T06:24:58.334Z,97845.44
2022-09-04T06:27:35.462Z,97842.88
2022-09-04T06:30:12.401Z,97840.06
2022-09-04T06:32:51.153Z,97836.13
2022-09-04T06:35:36.580Z,97841.19
2022-09-04T06:38:18.201Z,97847.06
2022-09-04T06:40:57.661Z,97847.81
2022-09-04T06:43:43.756Z,97838.72
2022-09-04T06:46:22.606Z,97845.03
2022-09-04T06:48:49.130Z,97844.72
2022-09-04T06:51:22.069Z,97847.19
2022-09-04T06:54:01.313Z,97851.00
2022-09-04T06:56:39.622Z,97848.75
2022-09-04T06:59:13.323Z,97856.69
2022-09-04T07:01:40.594Z,97859.25
2022-09-04T07:04:07.266Z,97864.13
2022-09-04T07:06:52.194Z,97858.91
2022-09-04T07:09:26.173Z,97852.94
2022-09-04T07:12:11.510Z,97854.09
2022-09-04T07:14:40.898Z,97863.03
2022-09-04T07:17:10.513Z,97861.81
2022-09-04T07:19:45.691Z,97858.13
2022-09-04T07:22:31.548Z,97859.97
2022-09-04T07:25:07.334Z,97853.59
2022-09-04T07:27:40.959Z,97861.97
2022-09-04T07:30:09.581Z,97855.41
2022-09-04T07:32:56.017Z,97866.72
2022-09-04T07:35:33.310Z,97867.91
2022-09-04T07:38:08.967Z,97862.34
2022-09-04T07:40:44.579Z,97873.41
2022-09-04T07:43:17.165Z,97878.91
2022-09-04T07:45:47.547Z,97875.94
2022-09-04T07:48:22.166Z,97874.16
2022-09-04T07:51:07.254Z,97862.50
2022-09-04T07:53:47.338Z,97872.41
2022-09-04T07:56:24.254Z,97868.56
2022-09-04T07:58:56.691Z,97872.59
2022-09-04T08:01:34.245Z,97874.22
2022-09-04T08:04:22.082Z,97874.72
2022-09-04T08:06:59.676Z,97876.00
2022-09-04T08:09:29.323Z,97877.31
2022-09-04T08:12:06.028Z,97867.94
2022-09-04T08:14:32.817Z,97872.69
2022-09-04T08:17:24.481Z,97870.50
2022-09-04T08:20:17.529Z,97876.41
2022-09-04T08:22:47.210Z,97873.66
2022-09-04T08:25:39.751Z,97882.16
2022-09-04T08:28:12.329Z,97874.44
2022-09-04T08:31:09.169Z,97882.44
2022-09-04T08:33:54.568Z,97879.63
2022-09-04T08:36:41.337Z,97874.88
2022-09-04T08:39:11.144Z,97891.59
2022-09-04T08:41:56.423Z,97884.31
2022-09-04T08:44:47.700Z,97891.28
2022-09-04T08:47:32.882Z,97894.81
2022-09-04T08:50:17.994Z,97890.56
2022-09-04T08:53:04.140Z,97896.75
2022-09-04T08:55:49.621Z,97897.72
2022-09-04T08:58:16.073Z,97894.25
2022-09-04T09:01:01.291Z,97898.00
2022-09-04T09:03:53.867Z,97901.28
2022-09-04T09:06:38.830Z,97897.38
2022-09-04T09:09:23.894Z,97896.94
2022-09-04T09:12:07.386Z,97899.63
2022-09-04T09:14:53.091Z,97900.44
2022-09-04T09:17:29.833Z,97900.34
2022-09-04T09:20:20.304Z,97900.88
2022-09-04T09:23:05.425Z,97901.72
2022-09-04T09:25:44.125Z,97897.06
2022-09-04T09:28:10.791Z,97899.91
2022-09-04T09:31:00.018Z,97907.31
2022-09-04T09:33:38.733Z,97898.44
2022-09-04T09:36:07.937Z,97900.97
2022-09-04T09:38:53.053Z,97900.09
2022-09-04T09:41:20.106Z,97901.09
2022-09-04T09:44:16.119Z,97911.41
2022-09-04T09:46:54.863Z,97901.00
2022-09-04T09:49:40.079Z,97903.19
2022-09-04T09:52:24.074Z,97907.78
2022-09-04T09:54:50.562Z,97906.16
2022-09-04T09:57:35.679Z,97902.31
2022-09-04T10:00:07.234Z,97907.53
2022-09-04T10:02:55.690Z,97902.97
2022-09-04T10:05:31.550Z,97901.84
2022-09-04T10:08:01.382Z,97902.75
2022-09-04T10:10:34.079Z,97894.50
2022-09-04T10:13:09.437Z,97897.75
2022-09-04T10:15:35.948Z,97899.72
2022-09-04T10:18:23.102Z,97896.59
2022-09-04T10:21:10.535Z,97899.94
2022-09-04T10:23:56.311Z,97898.81
2022-09-04T10:26:23.777Z,97906.44
2022-09-04T10:29:12.328Z,97892.31
2022-09-04T10:32:08.115Z,97890.75
2022-09-04T10:34:34.617Z,97886.31
2022-09-04T10:37:07.235Z,97887.66
2022-09-04T10:40:10.999Z,97897.41
2022-09-04T10:43:13.089Z,97898.84
2022-09-04T10:45:45.994Z,97894.41
2022-09-04T10:48:15.531Z,97892.16
2022-09-04T10:50:56.279Z,97895.00
2022-09-04T10:53:38.868Z,97887.44
2022-09-04T10:56:12.769Z,97885.44
2022-09-04T10:58:49.206Z,97883.25
2022-09-04T11:01:16.114Z,97879.41
2022-09-04T11:03:58.838Z,97882.34
2022-09-04T11:06:55.383Z,97881.44
2022-09-04T11:09:28.465Z,97877.47
2022-09-04T11:12:04.170Z,97889.38
2022-09-04T11:14:37.916Z,97889.69
2022-09-04T11:17:24.518Z,97888.94
2022-09-04T11:20:18.401Z,97871.03
2022-09-04T11:22:56.333Z,97873.22
2022-09-04T11:25:42.749Z,97871.53
2022-09-04T11:28:44.263Z,97864.41
2022-09-04T11:31:30.336Z,97859.44
2022-09-04T11:34:09.094Z,97861.22
2022-09-04T11:36:39.505Z,97866.00
2022-09-04T11:39:26.133Z,97861.91
2022-09-04T11:41:52.781Z,97865.97
2022-09-04T11:44:19.275Z,97869.75
2022-09-04T11:47:04.064Z,97858.78
2022-09-04T11:49:38.874Z,97855.47
2022-09-04T11:52:18.124Z,97853.63
2022-09-04T11:54:54.161Z,97849.31
2022-09-04T11:57:39.468Z,97854.84
2022-09-04T12:00:13.234Z,97845.41
2022-09-04T12:02:58.465Z,97854.13
2022-09-04T12:05:46.633Z,97839.09
2022-09-04T12:08:32.031Z,97834.06
2022-09-04T12:11:04.265Z,97833.09
2022-09-04T12:13:31.252Z,97840.53
2022-09-04T12:16:17.115Z,97821.56
2022-09-04T12:18:44.818Z,97823.72
2022-09-04T12:21:15.671Z,97823.28
2022-09-04T12:23:42.227Z,97825.31
2022-09-04T12:26:21.490Z,97826.84
2022-09-04T12:29:00.168Z,97817.84
2022-09-04T12:31:47.065Z,97836.50
2022-09-04T12:34:18.484Z,97840.78
2022-09-04T12:36:52.069Z,97848.34
2022-09-04T12:39:30.782Z,97858.72
2022-09-04T12:41:57.279Z,97873.78
2022-09-04T12:44:35.497Z,97895.50
2022-09-04T12:47:08.446Z,97910.09
2022-09-04T12:49:35.651Z,97934.38
2022-09-04T12:52:06.955Z,97951.44
2022-09-04T12:54:33.425Z,97951.50
2022-09-04T12:57:00.826Z,97954.59
2022-09-04T12:59:35.737Z,97954.91
2022-09-04T13:02:21.092Z,97951.75
2022-09-04T13:04:55.792Z,97941.22
2022-09-04T13:07:24.271Z,97939.03
2022-09-04T13:09:53.921Z,97944.84
2022-09-04T13:12:39.050Z,97941.91
2022-09-04T13:15:19.524Z,97954.66
2022-09-04T13:17:52.993Z,97956.94
2022-09-04T13:20:39.918Z,97957.31
2022-09-04T13:23:27.045Z,97951.63
2022-09-04T13:26:02.094Z,97955.41
2022-09-04T13:28:54.058Z,97950.50
2022-09-04T13:31:20.627Z,97939.19
2022-09-04T13:33:54.838Z,97933.81
2022-09-04T13:36:28.973Z,97929.69
2022-09-04T13:38:55.513Z,97913.75
2022-09-04T13:41:30.185Z,97915.09
2022-09-04T13:43:59.731Z,97911.72
2022-09-04T13:46:39.089Z,97913.84
2022-09-04T13:49:28.018Z,97915.50
2022-09-04T13:52:00.241Z,97923.06
2022-09-04T13:54:39.915Z,97930.25
2022-09-04T13:57:27.798Z,97924.81
2022-09-04T14:00:02.809Z,97931.63
2022-09-04T14:02:31.753Z,97930.66
2022-09-04T14:04:58.261Z,97926.38
2022-09-04T14:07:33.957Z,97934.84
2022-09-04T14:10:04.346Z,97941.09
2022-09-04T14:12:54.063Z,97948.28
2022-09-04T14:15:30.758Z,97959.69
2022-09-04T14:18:00.875Z,97966.03
2022-09-04T14:20:51.430Z,97973.44
2022-09-04T14:23:28.104Z,97981.38
2022-09-04T14:26:12.390Z,97988.34
2022-09-04T14:29:02.801Z,97996.31
2022-09-04T14:31:42.126Z,97997.22
2022-09-04T14:34:14.056Z,97995.66
2022-09-04T14:36:56.475Z,97999.59
2022-09-04T14:39:27.376Z,98005.13
2022-09-04T14:42:12.687Z,98012.31
2022-09-04T14:44:39.262Z,98020.41
2022-09-04T14:47:26.559Z,98018.63
2022-09-04T14:49:55.729Z,98018.94
2022-09-04T14:52:23.905Z,98014.75
2022-09-04T14:54:55.418Z,98018.00
2022-09-04T14:57:31.074Z,98018.19
2022-09-04T15:00:02.554Z,98028.06
2022-09-04T15:02:36.571Z,98023.00
2022-09-04T15:05:09.294Z,98031.91
2022-09-04T15:07:41.774Z,98027.28
2022-09-04T15:10:29.978Z,98028.53
2022-09-04T15:13:19.630Z,98041.34
2022-09-04T15:15:49.544Z,98039.13
2022-09-04T15:18:19.073Z,98031.56
2022-09-04T15:20:54.014Z,98045.50
2022-09-04T15:23:35.557Z,98053.72
2022-09-04T15:26:06.474Z,98041.56
2022-09-04T15:28:51.686Z,98041.88
2022-09-04T15:31:21.728Z,98056.41
2022-09-04T15:33:48.723Z,98055.91
2022-09-04T15:36:18.080Z,98060.88
2022-09-04T15:38:50.696Z,98061.38
2022-09-04T15:41:19.618Z,98054.06
2022-09-04T15:44:12.384Z,98060.03
2022-09-04T15:46:46.502Z,98064.50
2022-09-04T15:49:19.210Z,98053.63
2022-09-04T15:51:46.242Z,98066.94
2022-09-04T15:54:21.278Z,98065.25
2022-09-04T15:56:59.871Z,98061.06
2022-09-04T15:59:29.434Z,98059.84
2022-09-04T16:02:02.990Z,98052.47
2022-09-04T16:04:34.797Z,98058.81
2022-09-04T16:07:22.709Z,98057.75
2022-09-04T16:09:53.567Z,98058.53
2022-09-04T16:12:23.098Z,98058.94
2022-09-04T16:14:53.370Z,98053.63
2022-09-04T16:17:25.211Z,98052.50
2022-09-04T16:20:12.730Z,98047.84
2022-09-04T16:22:47.543Z,98051.84
2022-09-04T16:25:29.089Z,98061.59
2022-09-04T16:28:15.051Z,98066.75
2022-09-04T16:30:44.451Z,98065.69
2022-09-04T16:33:27.361Z,98058.94
2022-09-04T16:36:00.293Z,98064.28
2022-09-04T16:38:32.244Z,98076.63
2022-09-04T16:41:01.837Z,98078.25
2022-09-04T16:43:34.245Z,98071.34
2022-09-04T16:46:27.395Z,98078.34
2022-09-04T16:48:57.842Z,98075.03
2022-09-04T16:51:39.945Z,98083.22
2022-09-04T16:54:08.439Z,98092.53
2022-09-04T16:56:40.589Z,98099.91
2022-09-04T16:59:17.862Z,98100.88
2022-09-04T17:02:04.659Z,98105.91
2022-09-04T17:04:57.574Z,98115.16
2022-09-04T17:07:33.870Z,98113.03
2022-09-04T17:10:03.169Z,98117.41
2022-09-04T17:12:29.631Z,98120.56
2022-09-04T17:14:59.145Z,98116.66
2022-09-04T17:17:30.956Z,98118.66
2022-09-04T17:20:41.971Z,98127.09
2022-09-04T17:28:56.701Z,98116.41
2022-09-04T17:29:14.607Z,98116.66
2022-09-04T17:29:34.701Z,98125.34
2022-09-04T17:33:25.312Z,98124.97
2022-09-04T17:40:37.203Z,98126.38
2022-09-04T17:41:34.420Z,98127.38
2022-09-04T17:41:36.637Z,98130.91
2022-09-04T17:44:25.497Z,98141.38
2022-09-04T17:46:57.862Z,98138.63
2022-09-04T17:49:29.552Z,98146.03
2022-09-04T17:52:03.663Z,98148.66
2022-09-04T17:54:32.851Z,98163.56
2022-09-04T17:57:04.081Z,98158.00
2022-09-04T17:59:30.624Z,98165.41
2022-09-04T18:02:03.572Z,98165.88
2022-09-04T18:04:31.172Z,98165.41
2022-09-04T18:07:57.761Z,98166.47
2022-09-04T18:10:09.142Z,98174.06
2022-09-04T18:13:02.068Z,98174.09
2022-09-04T18:15:34.768Z,98187.91
2022-09-04T18:18:16.210Z,98179.00
2022-09-04T18:20:51.724Z,98189.69
2022-09-04T18:23:46.002Z,98192.84
2022-09-04T18:26:40.045Z,98195.78
2022-09-04T18:29:29.081Z,98200.78
2022-09-04T18:37:09.203Z,98201.72
2022-09-04T18:37:16.435Z,98207.50
2022-09-04T18:37:47.348Z,98215.03
2022-09-04T18:40:17.205Z,98213.00
2022-09-04T18:50:31.107Z,98217.44
2022-09-04T18:50:31.845Z,98210.94
2022-09-04T18:50:38.512Z,98208.22
2022-09-04T18:51:31.215Z,98217.59
2022-09-04T18:54:06.851Z,98218.50
2022-09-04T18:56:42.040Z,98214.03
2022-09-04T18:59:11.754Z,98222.72
2022-09-04T19:01:58.054Z,98221.84
2022-09-04T19:04:51.363Z,98224.28
2022-09-04T19:07:27.254Z,98227.50
2022-09-04T19:10:01.611Z,98223.91
2022-09-04T19:12:47.668Z,98225.97
2022-09-04T19:15:36.564Z,98226.56
2022-09-04T19:18:12.535Z,98235.22
2022-09-04T19:20:49.003Z,98233.03
2022-09-04T19:23:26.363Z,98234.28
2022-09-04T19:25:54.902Z,98242.63
2022-09-04T19:28:53.090Z,98236.28
2022-09-04T19:31:32.160Z,98248.19
2022-09-04T19:34:14.479Z,98250.34
2022-09-04T19:36:47.643Z,98248.53
2022-09-04T19:45:59.417Z,98253.31
2022-09-04T19:46:01.270Z,98244.88
2022-09-04T19:46:24.978Z,98253.06
2022-09-04T19:48:33.390Z,98248.06
2022-09-04T19:53:23.367Z,98243.97
2022-09-04T19:53:55.590Z,98239.97
2022-09-04T19:56:38.085Z,98243.41
2022-09-04T19:59:28.706Z,98239.66
2022-09-04T20:01:58.126Z,98244.66
2022-09-04T20:04:41.404Z,98244.66
2022-09-04T20:07:43.381Z,98250.94
2022-09-04T20:10:22.376Z,98243.34
2022-09-04T20:13:02.383Z,98246.19
2022-09-04T20:15:31.614Z,98243.59
2022-09-04T20:18:08.392Z,98243.34
2022-09-04T20:20:44.966Z,98248.56
2022-09-04T20:23:34.615Z,98243.41
2022-09-04T20:26:08.135Z,98237.44
2022-09-04T20:28:41.964Z,98245.03
2022-09-04T20:31:33.324Z,98239.09
2022-09-04T20:34:20.807Z,98249.19
2022-09-04T20:36:51.584Z,98249.72
2022-09-04T20:39:48.672Z,98248.56
2022-09-04T20:42:38.393Z,98252.88
2022-09-04T20:48:13.944Z,98257.03
2022-09-04T20:52:52.987Z,98251.56
2022-09-04T20:52:53.158Z,98258.09
2022-09-04T20:54:06.871Z,98255.38
2022-09-04T20:57:42.192Z,98255.44
2022-09-04T21:03:07.738Z,98262.66
2022-09-04T21:03:24.385Z,98264.81
2022-09-04T21:05:10.850Z,98254.50
2022-09-04T21:07:54.876Z,98255.59
2022-09-04T21:10:40.225Z,98269.94
2022-09-04T21:13:18.994Z,98270.38
2022-09-04T21:15:52.276Z,98273.81
2022-09-04T21:18:37.916Z,98270.78
2022-09-04T21:21:10.881Z,98279.53
2022-09-04T21:23:37.410Z,98280.84
2022-09-04T21:26:06.942Z,98290.44
2022-09-04T21:28:36.451Z,98290.91
2022-09-04T21:31:08.895Z,98284.13
2022-09-04T21:33:54.747Z,98289.09
2022-09-04T21:36:30.366Z,98295.28
2022-09-04T21:39:15.742Z,98297.31
2022-09-04T21:41:56.132Z,98294.88
2022-09-04T21:45:02.632Z,98296.28
2022-09-04T21:47:44.811Z,98293.88
2022-09-04T21:50:14.457Z,98300.31
2022-09-04T21:52:40.943Z,98303.44
2022-09-04T21:58:11.476Z,98302.72
2022-09-04T22:02:39.897Z,98305.66
2022-09-04T22:02:43.255Z,98301.50
2022-09-04T22:04:14.260Z,98304.47
2022-09-04T22:08:22.230Z,98300.03
2022-09-04T22:13:29.661Z,98296.59
2022-09-04T22:13:39.193Z,98285.59
2022-09-04T22:15:08.721Z,98286.13
2022-09-04T22:17:35.191Z,98291.69
2022-09-04T22:20:20.267Z,98295.31
2022-09-04T22:22:46.784Z,98292.25
2022-09-04T22:25:26.649Z,98288.84
2022-09-04T22:28:11.905Z,98298.34
2022-09-04T22:30:53.630Z,98294.66
2022-09-04T22:33:48.418Z,98290.91
2022-09-04T22:36:45.235Z,98294.31
2022-09-04T22:39:31.819Z,98297.72
2022-09-04T22:42:10.611Z,98300.47
2022-09-04T22:45:09.830Z,98299.78
2022-09-04T22:47:55.677Z,98300.41
2022-09-04T22:50:49.333Z,98309.25
2022-09-04T22:53:17.062Z,98309.78
2022-09-04T22:56:06.624Z,98312.38
2022-09-04T22:58:29.979Z,98314.41
2022-09-04T23:01:15.491Z,98307.28
2022-09-04T23:03:45.236Z,98313.69
2022-09-04T23:08:13.589Z,98311.84
2022-09-04T23:13:47.122Z,98303.88
2022-09-04T23:14:02.709Z,98313.72
2022-09-04T23:15:29.898Z,98315.25
2022-09-04T23:20:15.006Z,98314.38
2022-09-04T23:26:33.954Z,98313.72
2022-09-04T23:26:47.005Z,98314.56
2022-09-04T23:26:59.555Z,98308.63
2022-09-04T23:29:44.597Z,98305.88
2022-09-04T23:32:13.221Z,98304.03
2022-09-04T23:34:56.020Z,98311.16
2022-09-04T23:38:00.694Z,98310.66
2022-09-04T23:40:27.507Z,98312.72
2022-09-04T23:43:12.219Z,98316.13
2022-09-04T23:46:08.239Z,98315.09
2022-09-04T23:48:34.754Z,98318.31
2022-09-04T23:51:09.434Z,98309.31
2022-09-04T23:53:42.777Z,98310.00
2022-09-04T23:56:12.025Z,98303.88
2022-09-04T23:59:03.208Z,98305.44
